Airfield :
LOGIN :

Register | Disclaimer

   EN    FR    IT 

 










Legend :    VFR   Marginal VFR   IFR   Intensive IFR   Very Intensive IFR
Visi :
Ceiling :
>= 8 km
>= 3000ft
5 to 8 km
1000 to 3000 ft
1500m to 5 km
500 to 1000 ft
800 to 1500m
200 to 500 ft
< 800m
< 200 ft
Symbols :   Thunderstorms  Fog  Heavy snow  Heavy precipitations  Wind > 20 kt
SIGMETs :     Misc.  Thunderstorms  Icing  Turbulence  Mountain Waves  Volcanic Ashes







- Airport Elevation : 584 ft
- Download approach charts


LFPV - Villacoublay Vélizy

CURRENT METAR :
  • 240700Z AUTO 21006KT 5000 // BKN003 OVC013 ///// Q1023

EXPIRED METARs :
  • 240630Z AUTO 22006KT 180V250 3100 // OVC003 ///// Q1023
  • 240600Z AUTO 22006KT 5000 DZ BR OVC003 13/13 Q1023 TEMPO DZRA
  • 240530Z AUTO 21006KT 4700 -DZ BR OVC002 13/13 Q1023 TEMPO DZRA
  • 240500Z AUTO 22006KT 3700 -DZ BR OVC003 13/13 Q1023 TEMPO DZRA
  • 240430Z AUTO 22006KT 4300 BR OVC003 13/13 Q1023 TEMPO DZRA

TAF AMD TAF LFPV
Valid from the 24 at 05:00 until the 25 at 03:00 UTC


240525Z 2405/2503 22008KT 7000 OVC003
TEMPO 2405/2412 4000 DZRA OVC002
BECMG 2412/2414 BKN015
BECMG 2414/2416 SCT020
TEMPO 2422/2503 3000 BR
PROB40
TEMPO 2500/2503 0900 FG
No reported NOTAMs for that airfield.



MET'MAP, your aeronautical weather chart ! - Copyright ORBIFLY December 2007 - Disclaimer

ORBIFLY MET'MAP TEAM :

Programming & Development : Alexandra Zaïnal
Concept & Development : Baudouin d'Aumeries
Co-Development & Prog : Marc-Olivier Méhu
Technical & hardware support : Manuel Goepfert

Contact : metmap@orbifly.com




SOURCES & CREDITS :

   NOAA